sensor_id;sensor_type;location;lat;lon;timestamp;P1;durP1;ratioP1;P2;durP2;ratioP2
7833;SDS011;3962;42.696;23.354;2023-03-15T00:00:52;0.80;;;0.80;;
7833;SDS011;3962;42.696;23.354;2023-03-15T00:03:20;1.30;;;1.30;;
7833;SDS011;3962;42.696;23.354;2023-03-15T00:05:48;1.37;;;1.37;;
7833;SDS011;3962;42.696;23.354;2023-03-15T00:08:16;0.83;;;0.83;;
7833;SDS011;3962;42.696;23.354;2023-03-15T00:10:44;0.90;;;0.90;;
7833;SDS011;3962;42.696;23.354;2023-03-15T00:13:13;2.27;;;2.10;;
7833;SDS011;3962;42.696;23.354;2023-03-15T00:15:43;2.57;;;2.47;;
7833;SDS011;3962;42.696;23.354;2023-03-15T00:18:11;1.00;;;1.00;;
7833;SDS011;3962;42.696;23.354;2023-03-15T00:20:38;6.20;;;5.57;;
7833;SDS011;3962;42.696;23.354;2023-03-15T00:23:05;0.90;;;0.90;;
7833;SDS011;3962;42.696;23.354;2023-03-15T00:25:32;0.80;;;0.80;;
7833;SDS011;3962;42.696;23.354;2023-03-15T00:27:59;1.27;;;1.27;;
7833;SDS011;3962;42.696;23.354;2023-03-15T00:30:27;1.40;;;1.40;;
7833;SDS011;3962;42.696;23.354;2023-03-15T00:32:54;1.50;;;1.40;;
7833;SDS011;3962;42.696;23.354;2023-03-15T00:35:21;9.47;;;8.60;;
7833;SDS011;3962;42.696;23.354;2023-03-15T00:37:48;4.57;;;3.63;;
7833;SDS011;3962;42.696;23.354;2023-03-15T00:40:18;3.37;;;3.17;;
7833;SDS011;3962;42.696;23.354;2023-03-15T00:42:45;5.53;;;2.53;;
7833;SDS011;3962;42.696;23.354;2023-03-15T00:45:16;1.60;;;1.50;;
7833;SDS011;3962;42.696;23.354;2023-03-15T00:47:46;3.13;;;2.93;;
7833;SDS011;3962;42.696;23.354;2023-03-15T00:50:14;1.60;;;1.60;;
7833;SDS011;3962;42.696;23.354;2023-03-15T00:52:41;13.63;;;4.50;;
7833;SDS011;3962;42.696;23.354;2023-03-15T00:55:09;5.23;;;4.70;;
7833;SDS011;3962;42.696;23.354;2023-03-15T00:57:38;0.87;;;0.87;;
7833;SDS011;3962;42.696;23.354;2023-03-15T01:00:06;7.03;;;2.00;;
7833;SDS011;3962;42.696;23.354;2023-03-15T01:02:34;0.87;;;0.87;;
7833;SDS011;3962;42.696;23.354;2023-03-15T01:05:04;1.77;;;1.77;;
7833;SDS011;3962;42.696;23.354;2023-03-15T01:07:32;1.10;;;1.10;;
7833;SDS011;3962;42.696;23.354;2023-03-15T01:09:59;1.10;;;1.10;;
7833;SDS011;3962;42.696;23.354;2023-03-15T01:12:26;3.03;;;1.80;;
7833;SDS011;3962;42.696;23.354;2023-03-15T01:14:53;7.40;;;1.47;;
7833;SDS011;3962;42.696;23.354;2023-03-15T01:17:20;1.00;;;1.00;;
7833;SDS011;3962;42.696;23.354;2023-03-15T01:19:47;3.67;;;2.43;;
7833;SDS011;3962;42.696;23.354;2023-03-15T01:22:17;1.33;;;1.33;;
7833;SDS011;3962;42.696;23.354;2023-03-15T01:24:43;1.00;;;1.00;;
7833;SDS011;3962;42.696;23.354;2023-03-15T01:27:10;1.10;;;1.10;;
7833;SDS011;3962;42.696;23.354;2023-03-15T01:29:37;1.00;;;1.00;;
7833;SDS011;3962;42.696;23.354;2023-03-15T01:32:04;0.93;;;0.93;;
7833;SDS011;3962;42.696;23.354;2023-03-15T01:34:32;3.93;;;3.73;;
7833;SDS011;3962;42.696;23.354;2023-03-15T01:36:59;1.40;;;1.40;;
7833;SDS011;3962;42.696;23.354;2023-03-15T01:39:28;1.57;;;1.50;;
7833;SDS011;3962;42.696;23.354;2023-03-15T01:41:55;1.20;;;1.20;;
7833;SDS011;3962;42.696;23.354;2023-03-15T01:44:22;6.87;;;2.83;;
7833;SDS011;3962;42.696;23.354;2023-03-15T01:46:49;1.10;;;1.10;;
7833;SDS011;3962;42.696;23.354;2023-03-15T01:49:17;2.00;;;1.93;;
7833;SDS011;3962;42.696;23.354;2023-03-15T01:51:48;6.40;;;5.83;;
7833;SDS011;3962;42.696;23.354;2023-03-15T01:54:20;1.90;;;1.67;;
7833;SDS011;3962;42.696;23.354;2023-03-15T01:56:53;1.07;;;1.07;;
7833;SDS011;3962;42.696;23.354;2023-03-15T01:59:25;3.03;;;2.80;;
7833;SDS011;3962;42.696;23.354;2023-03-15T02:01:54;1.57;;;1.57;;
7833;SDS011;3962;42.696;23.354;2023-03-15T02:04:22;2.40;;;1.80;;
7833;SDS011;3962;42.696;23.354;2023-03-15T02:06:53;0.90;;;0.90;;
7833;SDS011;3962;42.696;23.354;2023-03-15T02:09:23;1.57;;;1.57;;
7833;SDS011;3962;42.696;23.354;2023-03-15T02:11:57;1.90;;;1.90;;
7833;SDS011;3962;42.696;23.354;2023-03-15T02:14:25;1.37;;;1.37;;
7833;SDS011;3962;42.696;23.354;2023-03-15T02:16:53;1.20;;;1.20;;
7833;SDS011;3962;42.696;23.354;2023-03-15T02:19:24;0.93;;;0.93;;
7833;SDS011;3962;42.696;23.354;2023-03-15T02:22:06;0.83;;;0.83;;
7833;SDS011;3962;42.696;23.354;2023-03-15T02:24:44;1.73;;;1.63;;
7833;SDS011;3962;42.696;23.354;2023-03-15T02:27:22;3.77;;;3.40;;
7833;SDS011;3962;42.696;23.354;2023-03-15T02:29:52;1.53;;;1.53;;
7833;SDS011;3962;42.696;23.354;2023-03-15T02:32:19;1.87;;;1.87;;
7833;SDS011;3962;42.696;23.354;2023-03-15T02:34:45;1.30;;;1.30;;
7833;SDS011;3962;42.696;23.354;2023-03-15T02:37:12;2.20;;;2.03;;
7833;SDS011;3962;42.696;23.354;2023-03-15T02:39:39;0.80;;;0.80;;
7833;SDS011;3962;42.696;23.354;2023-03-15T02:42:06;0.90;;;0.90;;
7833;SDS011;3962;42.696;23.354;2023-03-15T02:44:35;1.67;;;1.67;;
7833;SDS011;3962;42.696;23.354;2023-03-15T02:47:03;1.87;;;1.77;;
7833;SDS011;3962;42.696;23.354;2023-03-15T02:49:34;2.37;;;2.30;;
7833;SDS011;3962;42.696;23.354;2023-03-15T02:52:04;1.30;;;1.30;;
7833;SDS011;3962;42.696;23.354;2023-03-15T02:54:32;1.10;;;1.10;;
7833;SDS011;3962;42.696;23.354;2023-03-15T02:56:59;1.30;;;1.30;;
7833;SDS011;3962;42.696;23.354;2023-03-15T02:59:26;5.00;;;2.53;;
7833;SDS011;3962;42.696;23.354;2023-03-15T03:01:54;2.70;;;2.50;;
7833;SDS011;3962;42.696;23.354;2023-03-15T03:04:20;1.50;;;1.50;;
7833;SDS011;3962;42.696;23.354;2023-03-15T03:06:47;3.23;;;1.60;;
7833;SDS011;3962;42.696;23.354;2023-03-15T03:09:14;1.07;;;1.07;;
7833;SDS011;3962;42.696;23.354;2023-03-15T03:11:41;1.10;;;1.10;;
7833;SDS011;3962;42.696;23.354;2023-03-15T03:14:08;3.60;;;1.60;;
7833;SDS011;3962;42.696;23.354;2023-03-15T03:16:38;1.20;;;1.20;;
7833;SDS011;3962;42.696;23.354;2023-03-15T03:19:06;1.20;;;1.20;;
7833;SDS011;3962;42.696;23.354;2023-03-15T03:21:33;1.10;;;1.10;;
7833;SDS011;3962;42.696;23.354;2023-03-15T03:24:00;3.30;;;2.13;;
7833;SDS011;3962;42.696;23.354;2023-03-15T03:26:27;14.70;;;3.07;;
7833;SDS011;3962;42.696;23.354;2023-03-15T03:28:56;1.10;;;1.10;;
7833;SDS011;3962;42.696;23.354;2023-03-15T03:31:24;1.73;;;1.67;;
7833;SDS011;3962;42.696;23.354;2023-03-15T03:33:52;2.67;;;2.57;;
7833;SDS011;3962;42.696;23.354;2023-03-15T03:36:22;2.73;;;2.63;;
7833;SDS011;3962;42.696;23.354;2023-03-15T03:38:50;24.80;;;7.87;;
7833;SDS011;3962;42.696;23.354;2023-03-15T03:41:18;5.30;;;3.50;;
7833;SDS011;3962;42.696;23.354;2023-03-15T03:43:46;11.77;;;6.90;;
7833;SDS011;3962;42.696;23.354;2023-03-15T03:46:12;15.90;;;8.13;;
7833;SDS011;3962;42.696;23.354;2023-03-15T03:48:39;14.97;;;7.30;;
7833;SDS011;3962;42.696;23.354;2023-03-15T03:51:06;11.60;;;6.67;;
7833;SDS011;3962;42.696;23.354;2023-03-15T03:53:34;14.00;;;6.47;;
7833;SDS011;3962;42.696;23.354;2023-03-15T03:56:02;13.93;;;6.70;;
7833;SDS011;3962;42.696;23.354;2023-03-15T03:58:30;13.73;;;6.83;;
7833;SDS011;3962;42.696;23.354;2023-03-15T04:00:56;13.13;;;7.10;;
7833;SDS011;3962;42.696;23.354;2023-03-15T04:03:23;13.37;;;6.40;;
7833;SDS011;3962;42.696;23.354;2023-03-15T04:05:52;4.33;;;3.53;;
7833;SDS011;3962;42.696;23.354;2023-03-15T04:08:19;15.10;;;7.27;;
7833;SDS011;3962;42.696;23.354;2023-03-15T04:10:50;14.63;;;6.93;;
7833;SDS011;3962;42.696;23.354;2023-03-15T04:13:17;10.93;;;6.47;;
7833;SDS011;3962;42.696;23.354;2023-03-15T04:15:45;12.53;;;6.87;;
7833;SDS011;3962;42.696;23.354;2023-03-15T04:18:12;9.30;;;5.57;;
7833;SDS011;3962;42.696;23.354;2023-03-15T04:20:39;1.63;;;1.63;;
7833;SDS011;3962;42.696;23.354;2023-03-15T04:23:10;1.43;;;1.43;;
7833;SDS011;3962;42.696;23.354;2023-03-15T04:25:38;1.60;;;1.60;;
7833;SDS011;3962;42.696;23.354;2023-03-15T04:28:06;12.13;;;7.60;;
7833;SDS011;3962;42.696;23.354;2023-03-15T04:30:35;12.63;;;7.30;;
7833;SDS011;3962;42.696;23.354;2023-03-15T04:33:02;13.67;;;6.90;;
7833;SDS011;3962;42.696;23.354;2023-03-15T04:35:31;9.30;;;7.10;;
7833;SDS011;3962;42.696;23.354;2023-03-15T04:37:59;19.97;;;7.57;;
7833;SDS011;3962;42.696;23.354;2023-03-15T04:40:27;5.70;;;3.93;;
7833;SDS011;3962;42.696;23.354;2023-03-15T04:42:54;1.80;;;1.70;;
7833;SDS011;3962;42.696;23.354;2023-03-15T04:45:23;16.87;;;8.03;;
7833;SDS011;3962;42.696;23.354;2023-03-15T04:47:51;14.60;;;7.67;;
7833;SDS011;3962;42.696;23.354;2023-03-15T04:50:19;13.10;;;8.27;;
7833;SDS011;3962;42.696;23.354;2023-03-15T04:52:46;13.03;;;7.90;;
7833;SDS011;3962;42.696;23.354;2023-03-15T04:55:14;16.23;;;8.10;;
7833;SDS011;3962;42.696;23.354;2023-03-15T04:57:41;1.73;;;1.73;;
7833;SDS011;3962;42.696;23.354;2023-03-15T05:00:09;2.10;;;2.00;;
7833;SDS011;3962;42.696;23.354;2023-03-15T05:02:38;1.00;;;1.00;;
7833;SDS011;3962;42.696;23.354;2023-03-15T05:05:06;1.47;;;1.47;;
7833;SDS011;3962;42.696;23.354;2023-03-15T05:07:33;1.60;;;1.53;;
7833;SDS011;3962;42.696;23.354;2023-03-15T05:10:01;20.43;;;9.40;;
7833;SDS011;3962;42.696;23.354;2023-03-15T05:12:29;21.17;;;10.97;;
7833;SDS011;3962;42.696;23.354;2023-03-15T05:14:56;25.37;;;11.17;;
7833;SDS011;3962;42.696;23.354;2023-03-15T05:17:22;21.00;;;10.83;;
7833;SDS011;3962;42.696;23.354;2023-03-15T05:19:51;14.67;;;8.83;;
7833;SDS011;3962;42.696;23.354;2023-03-15T05:22:17;13.83;;;7.33;;
7833;SDS011;3962;42.696;23.354;2023-03-15T05:24:51;12.53;;;7.77;;
7833;SDS011;3962;42.696;23.354;2023-03-15T05:27:23;13.73;;;7.60;;
7833;SDS011;3962;42.696;23.354;2023-03-15T05:29:50;14.73;;;7.47;;
7833;SDS011;3962;42.696;23.354;2023-03-15T05:32:17;14.90;;;7.50;;
7833;SDS011;3962;42.696;23.354;2023-03-15T05:34:52;10.40;;;6.50;;
7833;SDS011;3962;42.696;23.354;2023-03-15T05:37:20;12.27;;;6.87;;
7833;SDS011;3962;42.696;23.354;2023-03-15T05:39:46;9.00;;;6.23;;
7833;SDS011;3962;42.696;23.354;2023-03-15T05:42:13;10.73;;;6.07;;
7833;SDS011;3962;42.696;23.354;2023-03-15T05:44:46;9.70;;;5.63;;
7833;SDS011;3962;42.696;23.354;2023-03-15T05:47:13;6.43;;;4.90;;
7833;SDS011;3962;42.696;23.354;2023-03-15T05:49:40;15.40;;;5.60;;
7833;SDS011;3962;42.696;23.354;2023-03-15T05:52:08;12.63;;;5.60;;
7833;SDS011;3962;42.696;23.354;2023-03-15T05:54:35;15.30;;;6.10;;
7833;SDS011;3962;42.696;23.354;2023-03-15T05:57:02;17.20;;;6.83;;
7833;SDS011;3962;42.696;23.354;2023-03-15T05:59:29;7.73;;;5.33;;
7833;SDS011;3962;42.696;23.354;2023-03-15T06:01:57;27.17;;;6.13;;
7833;SDS011;3962;42.696;23.354;2023-03-15T06:04:23;9.53;;;5.27;;
7833;SDS011;3962;42.696;23.354;2023-03-15T06:06:50;10.23;;;5.73;;
7833;SDS011;3962;42.696;23.354;2023-03-15T06:09:19;10.23;;;5.57;;
7833;SDS011;3962;42.696;23.354;2023-03-15T06:11:45;17.90;;;6.67;;
7833;SDS011;3962;42.696;23.354;2023-03-15T06:14:12;2.83;;;2.63;;
7833;SDS011;3962;42.696;23.354;2023-03-15T06:16:39;13.30;;;6.40;;
7833;SDS011;3962;42.696;23.354;2023-03-15T06:19:06;4.97;;;2.30;;
7833;SDS011;3962;42.696;23.354;2023-03-15T06:21:33;4.53;;;2.57;;
7833;SDS011;3962;42.696;23.354;2023-03-15T06:23:59;2.23;;;2.03;;
7833;SDS011;3962;42.696;23.354;2023-03-15T06:26:27;1.73;;;1.63;;
7833;SDS011;3962;42.696;23.354;2023-03-15T06:28:55;2.47;;;2.27;;
7833;SDS011;3962;42.696;23.354;2023-03-15T06:31:21;5.13;;;2.47;;
7833;SDS011;3962;42.696;23.354;2023-03-15T06:33:48;1.37;;;1.37;;
7833;SDS011;3962;42.696;23.354;2023-03-15T06:36:15;2.70;;;2.33;;
7833;SDS011;3962;42.696;23.354;2023-03-15T06:38:42;2.80;;;2.43;;
7833;SDS011;3962;42.696;23.354;2023-03-15T06:41:09;4.17;;;3.13;;
7833;SDS011;3962;42.696;23.354;2023-03-15T06:43:41;2.07;;;1.97;;
7833;SDS011;3962;42.696;23.354;2023-03-15T06:46:08;2.73;;;2.57;;
7833;SDS011;3962;42.696;23.354;2023-03-15T06:48:35;2.23;;;2.13;;
7833;SDS011;3962;42.696;23.354;2023-03-15T06:51:02;2.93;;;2.73;;
7833;SDS011;3962;42.696;23.354;2023-03-15T06:53:30;1.90;;;1.80;;
7833;SDS011;3962;42.696;23.354;2023-03-15T06:55:57;3.33;;;2.27;;
7833;SDS011;3962;42.696;23.354;2023-03-15T06:58:25;6.87;;;4.20;;
7833;SDS011;3962;42.696;23.354;2023-03-15T07:00:54;1.50;;;1.50;;
7833;SDS011;3962;42.696;23.354;2023-03-15T07:03:27;2.13;;;2.03;;
7833;SDS011;3962;42.696;23.354;2023-03-15T07:05:58;1.63;;;1.57;;
7833;SDS011;3962;42.696;23.354;2023-03-15T07:08:34;1.63;;;1.53;;
7833;SDS011;3962;42.696;23.354;2023-03-15T07:11:01;2.40;;;2.20;;
7833;SDS011;3962;42.696;23.354;2023-03-15T07:13:28;3.77;;;2.37;;
7833;SDS011;3962;42.696;23.354;2023-03-15T07:15:56;1.77;;;1.67;;
7833;SDS011;3962;42.696;23.354;2023-03-15T07:18:23;1.90;;;1.80;;
7833;SDS011;3962;42.696;23.354;2023-03-15T07:20:54;2.73;;;1.40;;
7833;SDS011;3962;42.696;23.354;2023-03-15T07:23:21;1.70;;;1.60;;
7833;SDS011;3962;42.696;23.354;2023-03-15T07:25:48;1.00;;;1.00;;
7833;SDS011;3962;42.696;23.354;2023-03-15T07:28:15;1.43;;;1.43;;
7833;SDS011;3962;42.696;23.354;2023-03-15T07:30:50;1.80;;;1.63;;
7833;SDS011;3962;42.696;23.354;2023-03-15T07:33:20;1.07;;;1.07;;
7833;SDS011;3962;42.696;23.354;2023-03-15T07:35:48;2.40;;;1.30;;
7833;SDS011;3962;42.696;23.354;2023-03-15T07:38:15;1.93;;;1.83;;
7833;SDS011;3962;42.696;23.354;2023-03-15T07:40:42;1.47;;;1.37;;
7833;SDS011;3962;42.696;23.354;2023-03-15T07:43:09;0.90;;;0.90;;
7833;SDS011;3962;42.696;23.354;2023-03-15T07:45:35;0.90;;;0.90;;
7833;SDS011;3962;42.696;23.354;2023-03-15T07:48:02;0.70;;;0.70;;
7833;SDS011;3962;42.696;23.354;2023-03-15T07:50:31;0.40;;;0.40;;
7833;SDS011;3962;42.696;23.354;2023-03-15T07:52:57;1.43;;;1.30;;
7833;SDS011;3962;42.696;23.354;2023-03-15T07:55:25;0.60;;;0.60;;
7833;SDS011;3962;42.696;23.354;2023-03-15T07:57:51;0.87;;;0.87;;
7833;SDS011;3962;42.696;23.354;2023-03-15T08:00:21;1.27;;;1.23;;
7833;SDS011;3962;42.696;23.354;2023-03-15T08:02:48;0.80;;;0.80;;
7833;SDS011;3962;42.696;23.354;2023-03-15T08:05:15;0.53;;;0.53;;
7833;SDS011;3962;42.696;23.354;2023-03-15T08:07:45;1.13;;;1.13;;
7833;SDS011;3962;42.696;23.354;2023-03-15T08:10:13;1.00;;;1.00;;
7833;SDS011;3962;42.696;23.354;2023-03-15T08:12:40;3.00;;;2.77;;
7833;SDS011;3962;42.696;23.354;2023-03-15T08:15:08;2.17;;;1.40;;
7833;SDS011;3962;42.696;23.354;2023-03-15T08:17:36;2.00;;;1.57;;
7833;SDS011;3962;42.696;23.354;2023-03-15T08:20:04;1.27;;;1.23;;
7833;SDS011;3962;42.696;23.354;2023-03-15T08:22:35;2.03;;;1.83;;
7833;SDS011;3962;42.696;23.354;2023-03-15T08:25:04;4.93;;;1.43;;
7833;SDS011;3962;42.696;23.354;2023-03-15T08:27:31;1.37;;;1.00;;
7833;SDS011;3962;42.696;23.354;2023-03-15T08:29:58;0.50;;;0.50;;
7833;SDS011;3962;42.696;23.354;2023-03-15T08:32:25;0.43;;;0.43;;
7833;SDS011;3962;42.696;23.354;2023-03-15T08:34:52;3.27;;;1.80;;
7833;SDS011;3962;42.696;23.354;2023-03-15T08:37:19;1.23;;;1.10;;
7833;SDS011;3962;42.696;23.354;2023-03-15T08:39:46;0.50;;;0.50;;
7833;SDS011;3962;42.696;23.354;2023-03-15T08:42:14;0.70;;;0.70;;
7833;SDS011;3962;42.696;23.354;2023-03-15T08:44:41;0.93;;;0.93;;
7833;SDS011;3962;42.696;23.354;2023-03-15T08:47:07;0.57;;;0.57;;
7833;SDS011;3962;42.696;23.354;2023-03-15T08:49:34;0.40;;;0.40;;
7833;SDS011;3962;42.696;23.354;2023-03-15T08:52:01;0.97;;;0.97;;
7833;SDS011;3962;42.696;23.354;2023-03-15T08:54:28;0.57;;;0.57;;
7833;SDS011;3962;42.696;23.354;2023-03-15T08:56:55;0.67;;;0.67;;
7833;SDS011;3962;42.696;23.354;2023-03-15T08:59:23;3.63;;;0.70;;
7833;SDS011;3962;42.696;23.354;2023-03-15T09:01:50;3.47;;;1.23;;
7833;SDS011;3962;42.696;23.354;2023-03-15T09:04:17;1.50;;;1.50;;
7833;SDS011;3962;42.696;23.354;2023-03-15T09:06:46;2.20;;;2.00;;
7833;SDS011;3962;42.696;23.354;2023-03-15T09:09:12;1.60;;;1.50;;
7833;SDS011;3962;42.696;23.354;2023-03-15T09:11:41;0.53;;;0.53;;
7833;SDS011;3962;42.696;23.354;2023-03-15T09:14:08;0.73;;;0.73;;
7833;SDS011;3962;42.696;23.354;2023-03-15T09:16:36;1.07;;;0.97;;
7833;SDS011;3962;42.696;23.354;2023-03-15T09:19:03;0.53;;;0.53;;
7833;SDS011;3962;42.696;23.354;2023-03-15T09:21:30;0.50;;;0.50;;
7833;SDS011;3962;42.696;23.354;2023-03-15T09:23:56;0.43;;;0.43;;
7833;SDS011;3962;42.696;23.354;2023-03-15T09:26:23;0.80;;;0.80;;
7833;SDS011;3962;42.696;23.354;2023-03-15T09:28:50;0.90;;;0.90;;
7833;SDS011;3962;42.696;23.354;2023-03-15T09:31:17;1.03;;;1.00;;
7833;SDS011;3962;42.696;23.354;2023-03-15T09:33:45;0.60;;;0.60;;
7833;SDS011;3962;42.696;23.354;2023-03-15T09:36:12;1.70;;;1.20;;
7833;SDS011;3962;42.696;23.354;2023-03-15T09:38:39;2.30;;;2.10;;
7833;SDS011;3962;42.696;23.354;2023-03-15T09:41:10;0.87;;;0.87;;
7833;SDS011;3962;42.696;23.354;2023-03-15T09:43:53;0.80;;;0.80;;
7833;SDS011;3962;42.696;23.354;2023-03-15T09:46:27;0.40;;;0.40;;
7833;SDS011;3962;42.696;23.354;2023-03-15T09:49:00;0.60;;;0.60;;
7833;SDS011;3962;42.696;23.354;2023-03-15T09:51:34;0.83;;;0.83;;
7833;SDS011;3962;42.696;23.354;2023-03-15T09:54:06;0.50;;;0.50;;
7833;SDS011;3962;42.696;23.354;2023-03-15T09:56:36;0.57;;;0.57;;
7833;SDS011;3962;42.696;23.354;2023-03-15T09:59:09;1.03;;;1.03;;
7833;SDS011;3962;42.696;23.354;2023-03-15T10:01:38;4.07;;;1.60;;
7833;SDS011;3962;42.696;23.354;2023-03-15T10:04:09;0.87;;;0.83;;
7833;SDS011;3962;42.696;23.354;2023-03-15T10:06:40;0.70;;;0.70;;
7833;SDS011;3962;42.696;23.354;2023-03-15T10:09:14;0.60;;;0.60;;
7833;SDS011;3962;42.696;23.354;2023-03-15T10:11:45;0.77;;;0.77;;
7833;SDS011;3962;42.696;23.354;2023-03-15T10:14:22;0.60;;;0.60;;
7833;SDS011;3962;42.696;23.354;2023-03-15T10:16:59;0.40;;;0.40;;
7833;SDS011;3962;42.696;23.354;2023-03-15T10:19:38;0.30;;;0.30;;
7833;SDS011;3962;42.696;23.354;2023-03-15T10:22:14;0.53;;;0.53;;
7833;SDS011;3962;42.696;23.354;2023-03-15T10:24:49;0.53;;;0.53;;
7833;SDS011;3962;42.696;23.354;2023-03-15T10:27:19;0.33;;;0.33;;
7833;SDS011;3962;42.696;23.354;2023-03-15T10:29:50;0.27;;;0.27;;
7833;SDS011;3962;42.696;23.354;2023-03-15T10:32:21;1.80;;;1.70;;
7833;SDS011;3962;42.696;23.354;2023-03-15T10:34:53;0.83;;;0.83;;
7833;SDS011;3962;42.696;23.354;2023-03-15T10:37:22;1.53;;;1.43;;
7833;SDS011;3962;42.696;23.354;2023-03-15T10:39:52;1.70;;;1.30;;
7833;SDS011;3962;42.696;23.354;2023-03-15T10:42:25;1.60;;;1.30;;
7833;SDS011;3962;42.696;23.354;2023-03-15T10:44:54;0.40;;;0.40;;
7833;SDS011;3962;42.696;23.354;2023-03-15T10:47:21;0.93;;;0.93;;
7833;SDS011;3962;42.696;23.354;2023-03-15T10:49:55;0.87;;;0.87;;
7833;SDS011;3962;42.696;23.354;2023-03-15T10:52:27;0.50;;;0.50;;
7833;SDS011;3962;42.696;23.354;2023-03-15T10:54:59;0.40;;;0.40;;
7833;SDS011;3962;42.696;23.354;2023-03-15T10:57:29;2.67;;;2.57;;
7833;SDS011;3962;42.696;23.354;2023-03-15T11:00:05;0.60;;;0.60;;
7833;SDS011;3962;42.696;23.354;2023-03-15T11:02:48;0.60;;;0.60;;
7833;SDS011;3962;42.696;23.354;2023-03-15T11:05:17;1.43;;;1.33;;
7833;SDS011;3962;42.696;23.354;2023-03-15T11:07:52;0.50;;;0.50;;
7833;SDS011;3962;42.696;23.354;2023-03-15T11:10:20;0.30;;;0.30;;
7833;SDS011;3962;42.696;23.354;2023-03-15T11:12:49;0.40;;;0.40;;
7833;SDS011;3962;42.696;23.354;2023-03-15T11:15:33;0.50;;;0.50;;
7833;SDS011;3962;42.696;23.354;2023-03-15T11:18:00;0.40;;;0.40;;
7833;SDS011;3962;42.696;23.354;2023-03-15T11:20:29;0.77;;;0.77;;
7833;SDS011;3962;42.696;23.354;2023-03-15T11:23:00;1.03;;;1.03;;
7833;SDS011;3962;42.696;23.354;2023-03-15T11:25:39;0.30;;;0.30;;
7833;SDS011;3962;42.696;23.354;2023-03-15T11:28:07;1.07;;;1.07;;
7833;SDS011;3962;42.696;23.354;2023-03-15T11:30:41;1.77;;;1.47;;
7833;SDS011;3962;42.696;23.354;2023-03-15T11:33:13;0.70;;;0.70;;
7833;SDS011;3962;42.696;23.354;2023-03-15T11:35:55;0.50;;;0.50;;
7833;SDS011;3962;42.696;23.354;2023-03-15T11:38:30;3.30;;;3.20;;
7833;SDS011;3962;42.696;23.354;2023-03-15T11:41:01;0.43;;;0.43;;
7833;SDS011;3962;42.696;23.354;2023-03-15T11:43:39;0.93;;;0.93;;
7833;SDS011;3962;42.696;23.354;2023-03-15T11:46:13;0.77;;;0.77;;
7833;SDS011;3962;42.696;23.354;2023-03-15T11:48:49;0.37;;;0.37;;
7833;SDS011;3962;42.696;23.354;2023-03-15T11:51:20;0.30;;;0.30;;
7833;SDS011;3962;42.696;23.354;2023-03-15T11:53:49;0.67;;;0.67;;
7833;SDS011;3962;42.696;23.354;2023-03-15T11:56:23;2.20;;;2.10;;
7833;SDS011;3962;42.696;23.354;2023-03-15T11:58:59;18.57;;;3.90;;
7833;SDS011;3962;42.696;23.354;2023-03-15T12:01:33;0.77;;;0.77;;
7833;SDS011;3962;42.696;23.354;2023-03-15T12:06:56;0.33;;;0.33;;
7833;SDS011;3962;42.696;23.354;2023-03-15T12:09:45;0.10;;;0.10;;
7833;SDS011;3962;42.696;23.354;2023-03-15T12:12:35;0.30;;;0.30;;
7833;SDS011;3962;42.696;23.354;2023-03-15T12:15:08;2.53;;;1.00;;
7833;SDS011;3962;42.696;23.354;2023-03-15T12:17:55;0.70;;;0.70;;
7833;SDS011;3962;42.696;23.354;2023-03-15T12:20:26;1.83;;;1.67;;
7833;SDS011;3962;42.696;23.354;2023-03-15T12:23:11;0.37;;;0.37;;
7833;SDS011;3962;42.696;23.354;2023-03-15T12:25:49;0.20;;;0.20;;
7833;SDS011;3962;42.696;23.354;2023-03-15T12:28:20;0.30;;;0.30;;
7833;SDS011;3962;42.696;23.354;2023-03-15T12:30:53;0.30;;;0.30;;
7833;SDS011;3962;42.696;23.354;2023-03-15T12:33:23;2.10;;;1.63;;
7833;SDS011;3962;42.696;23.354;2023-03-15T12:35:57;0.40;;;0.40;;
7833;SDS011;3962;42.696;23.354;2023-03-15T12:38:30;0.47;;;0.47;;
7833;SDS011;3962;42.696;23.354;2023-03-15T12:41:05;0.67;;;0.63;;
7833;SDS011;3962;42.696;23.354;2023-03-15T12:43:33;1.10;;;1.10;;
7833;SDS011;3962;42.696;23.354;2023-03-15T12:46:01;0.40;;;0.40;;
7833;SDS011;3962;42.696;23.354;2023-03-15T12:48:28;1.20;;;1.10;;
7833;SDS011;3962;42.696;23.354;2023-03-15T12:50:57;0.70;;;0.70;;
7833;SDS011;3962;42.696;23.354;2023-03-15T12:56:32;0.40;;;0.40;;
7833;SDS011;3962;42.696;23.354;2023-03-15T12:59:14;1.97;;;1.93;;
7833;SDS011;3962;42.696;23.354;2023-03-15T13:01:45;0.20;;;0.20;;
7833;SDS011;3962;42.696;23.354;2023-03-15T13:04:13;0.40;;;0.40;;
7833;SDS011;3962;42.696;23.354;2023-03-15T13:06:43;4.23;;;1.30;;
7833;SDS011;3962;42.696;23.354;2023-03-15T13:09:22;0.63;;;0.63;;
7833;SDS011;3962;42.696;23.354;2023-03-15T13:12:04;0.40;;;0.40;;
7833;SDS011;3962;42.696;23.354;2023-03-15T13:14:40;0.43;;;0.40;;
7833;SDS011;3962;42.696;23.354;2023-03-15T13:17:12;1.43;;;1.43;;
7833;SDS011;3962;42.696;23.354;2023-03-15T13:19:48;2.00;;;1.50;;
7833;SDS011;3962;42.696;23.354;2023-03-15T13:22:23;0.27;;;0.27;;
7833;SDS011;3962;42.696;23.354;2023-03-15T13:25:01;1.00;;;1.00;;
7833;SDS011;3962;42.696;23.354;2023-03-15T13:27:38;0.30;;;0.30;;
7833;SDS011;3962;42.696;23.354;2023-03-15T13:30:24;0.50;;;0.50;;
7833;SDS011;3962;42.696;23.354;2023-03-15T13:33:01;0.30;;;0.30;;
7833;SDS011;3962;42.696;23.354;2023-03-15T13:35:30;0.50;;;0.50;;
7833;SDS011;3962;42.696;23.354;2023-03-15T13:37:59;1.20;;;1.20;;
7833;SDS011;3962;42.696;23.354;2023-03-15T13:40:33;4.03;;;1.57;;
7833;SDS011;3962;42.696;23.354;2023-03-15T13:43:00;3.13;;;2.67;;
7833;SDS011;3962;42.696;23.354;2023-03-15T13:45:27;0.40;;;0.40;;
7833;SDS011;3962;42.696;23.354;2023-03-15T13:47:53;0.47;;;0.47;;
7833;SDS011;3962;42.696;23.354;2023-03-15T13:50:20;0.20;;;0.20;;
7833;SDS011;3962;42.696;23.354;2023-03-15T13:52:47;0.50;;;0.50;;
7833;SDS011;3962;42.696;23.354;2023-03-15T13:55:15;0.90;;;0.87;;
7833;SDS011;3962;42.696;23.354;2023-03-15T13:57:48;0.37;;;0.37;;
7833;SDS011;3962;42.696;23.354;2023-03-15T14:00:20;0.43;;;0.43;;
7833;SDS011;3962;42.696;23.354;2023-03-15T14:02:49;0.97;;;0.97;;
7833;SDS011;3962;42.696;23.354;2023-03-15T14:05:19;0.47;;;0.47;;
7833;SDS011;3962;42.696;23.354;2023-03-15T14:07:56;0.27;;;0.27;;
7833;SDS011;3962;42.696;23.354;2023-03-15T14:10:28;0.20;;;0.20;;
7833;SDS011;3962;42.696;23.354;2023-03-15T14:12:58;0.20;;;0.20;;
7833;SDS011;3962;42.696;23.354;2023-03-15T14:15:42;0.90;;;0.90;;
7833;SDS011;3962;42.696;23.354;2023-03-15T14:18:14;0.20;;;0.20;;
7833;SDS011;3962;42.696;23.354;2023-03-15T14:20:43;0.97;;;0.87;;
7833;SDS011;3962;42.696;23.354;2023-03-15T14:23:12;0.47;;;0.47;;
7833;SDS011;3962;42.696;23.354;2023-03-15T14:25:41;0.30;;;0.30;;
7833;SDS011;3962;42.696;23.354;2023-03-15T14:28:11;0.40;;;0.40;;
7833;SDS011;3962;42.696;23.354;2023-03-15T14:30:41;0.30;;;0.30;;
7833;SDS011;3962;42.696;23.354;2023-03-15T14:33:21;0.57;;;0.57;;
7833;SDS011;3962;42.696;23.354;2023-03-15T14:35:52;0.60;;;0.60;;
7833;SDS011;3962;42.696;23.354;2023-03-15T14:38:23;0.20;;;0.20;;
7833;SDS011;3962;42.696;23.354;2023-03-15T14:40:52;0.83;;;0.83;;
7833;SDS011;3962;42.696;23.354;2023-03-15T14:43:21;1.07;;;1.00;;
7833;SDS011;3962;42.696;23.354;2023-03-15T14:45:47;0.40;;;0.40;;
7833;SDS011;3962;42.696;23.354;2023-03-15T14:48:17;1.60;;;1.37;;
7833;SDS011;3962;42.696;23.354;2023-03-15T14:50:50;0.70;;;0.70;;
7833;SDS011;3962;42.696;23.354;2023-03-15T14:53:17;0.37;;;0.37;;
7833;SDS011;3962;42.696;23.354;2023-03-15T14:55:46;0.50;;;0.50;;
7833;SDS011;3962;42.696;23.354;2023-03-15T14:58:14;0.40;;;0.40;;
7833;SDS011;3962;42.696;23.354;2023-03-15T15:00:44;0.33;;;0.33;;
7833;SDS011;3962;42.696;23.354;2023-03-15T15:03:13;0.40;;;0.40;;
7833;SDS011;3962;42.696;23.354;2023-03-15T15:05:43;0.40;;;0.40;;
7833;SDS011;3962;42.696;23.354;2023-03-15T15:08:12;0.67;;;0.67;;
7833;SDS011;3962;42.696;23.354;2023-03-15T15:10:41;0.70;;;0.70;;
7833;SDS011;3962;42.696;23.354;2023-03-15T15:13:12;0.67;;;0.67;;
7833;SDS011;3962;42.696;23.354;2023-03-15T15:15:42;0.30;;;0.30;;
7833;SDS011;3962;42.696;23.354;2023-03-15T15:18:09;0.40;;;0.40;;
7833;SDS011;3962;42.696;23.354;2023-03-15T15:20:36;0.80;;;0.80;;